sensor_id;sensor_type;location;lat;lon;timestamp;P1;durP1;ratioP1;P2;durP2;ratioP2
5357;SDS011;2702;51.014;7.170;2022-07-06T00:02:15;2.77;;;2.57;;
5357;SDS011;2702;51.014;7.170;2022-07-06T00:04:41;3.37;;;2.73;;
5357;SDS011;2702;51.014;7.170;2022-07-06T00:07:07;4.53;;;2.50;;
5357;SDS011;2702;51.014;7.170;2022-07-06T00:09:33;4.07;;;2.60;;
5357;SDS011;2702;51.014;7.170;2022-07-06T00:11:59;2.70;;;2.40;;
5357;SDS011;2702;51.014;7.170;2022-07-06T00:14:25;3.63;;;2.83;;
5357;SDS011;2702;51.014;7.170;2022-07-06T00:16:51;5.43;;;2.30;;
5357;SDS011;2702;51.014;7.170;2022-07-06T00:19:17;3.23;;;2.27;;
5357;SDS011;2702;51.014;7.170;2022-07-06T00:21:43;3.00;;;2.70;;
5357;SDS011;2702;51.014;7.170;2022-07-06T00:24:09;3.00;;;2.57;;
5357;SDS011;2702;51.014;7.170;2022-07-06T00:26:35;3.13;;;2.83;;
5357;SDS011;2702;51.014;7.170;2022-07-06T00:29:01;4.50;;;2.90;;
5357;SDS011;2702;51.014;7.170;2022-07-06T00:31:27;5.47;;;2.70;;
5357;SDS011;2702;51.014;7.170;2022-07-06T00:33:52;3.53;;;2.77;;
5357;SDS011;2702;51.014;7.170;2022-07-06T00:36:19;2.77;;;2.57;;
5357;SDS011;2702;51.014;7.170;2022-07-06T00:38:45;4.43;;;2.90;;
5357;SDS011;2702;51.014;7.170;2022-07-06T00:41:12;4.47;;;2.43;;
5357;SDS011;2702;51.014;7.170;2022-07-06T00:43:49;3.57;;;2.80;;
5357;SDS011;2702;51.014;7.170;2022-07-06T00:46:22;5.27;;;3.20;;
5357;SDS011;2702;51.014;7.170;2022-07-06T00:48:58;4.40;;;3.13;;
5357;SDS011;2702;51.014;7.170;2022-07-06T00:51:30;5.17;;;3.63;;
5357;SDS011;2702;51.014;7.170;2022-07-06T00:54:02;4.63;;;4.13;;
5357;SDS011;2702;51.014;7.170;2022-07-06T00:56:30;3.60;;;3.30;;
5357;SDS011;2702;51.014;7.170;2022-07-06T00:58:57;4.83;;;3.33;;
5357;SDS011;2702;51.014;7.170;2022-07-06T01:01:25;4.90;;;3.67;;
5357;SDS011;2702;51.014;7.170;2022-07-06T01:03:51;5.27;;;4.23;;
5357;SDS011;2702;51.014;7.170;2022-07-06T01:06:17;3.90;;;3.17;;
5357;SDS011;2702;51.014;7.170;2022-07-06T01:08:43;4.63;;;3.57;;
5357;SDS011;2702;51.014;7.170;2022-07-06T01:11:08;6.57;;;3.53;;
5357;SDS011;2702;51.014;7.170;2022-07-06T01:13:35;3.60;;;3.30;;
5357;SDS011;2702;51.014;7.170;2022-07-06T01:16:01;4.37;;;3.43;;
5357;SDS011;2702;51.014;7.170;2022-07-06T01:18:27;4.10;;;3.80;;
5357;SDS011;2702;51.014;7.170;2022-07-06T01:21:26;4.10;;;3.60;;
5357;SDS011;2702;51.014;7.170;2022-07-06T01:23:46;4.60;;;3.10;;
5357;SDS011;2702;51.014;7.170;2022-07-06T01:26:13;3.60;;;3.13;;
5357;SDS011;2702;51.014;7.170;2022-07-06T01:28:41;5.10;;;3.40;;
5357;SDS011;2702;51.014;7.170;2022-07-06T01:31:44;4.40;;;3.67;;
5357;SDS011;2702;51.014;7.170;2022-07-06T01:34:00;5.60;;;3.10;;
5357;SDS011;2702;51.014;7.170;2022-07-06T01:36:26;4.83;;;3.23;;
5357;SDS011;2702;51.014;7.170;2022-07-06T01:38:53;3.67;;;3.17;;
5357;SDS011;2702;51.014;7.170;2022-07-06T01:41:20;3.90;;;2.90;;
5357;SDS011;2702;51.014;7.170;2022-07-06T01:43:46;3.87;;;3.03;;
5357;SDS011;2702;51.014;7.170;2022-07-06T01:46:12;4.43;;;3.10;;
5357;SDS011;2702;51.014;7.170;2022-07-06T01:48:38;4.63;;;2.90;;
5357;SDS011;2702;51.014;7.170;2022-07-06T01:51:05;4.40;;;3.20;;
5357;SDS011;2702;51.014;7.170;2022-07-06T01:53:31;4.70;;;3.00;;
5357;SDS011;2702;51.014;7.170;2022-07-06T01:55:57;6.03;;;2.93;;
5357;SDS011;2702;51.014;7.170;2022-07-06T01:58:23;3.43;;;3.07;;
5357;SDS011;2702;51.014;7.170;2022-07-06T02:00:49;2.97;;;2.67;;
5357;SDS011;2702;51.014;7.170;2022-07-06T02:03:15;2.77;;;2.57;;
5357;SDS011;2702;51.014;7.170;2022-07-06T02:05:41;4.10;;;2.80;;
5357;SDS011;2702;51.014;7.170;2022-07-06T02:08:07;5.83;;;2.90;;
5357;SDS011;2702;51.014;7.170;2022-07-06T02:10:33;3.10;;;2.80;;
5357;SDS011;2702;51.014;7.170;2022-07-06T02:12:59;3.63;;;2.80;;
5357;SDS011;2702;51.014;7.170;2022-07-06T02:15:24;3.57;;;3.27;;
5357;SDS011;2702;51.014;7.170;2022-07-06T02:17:50;5.93;;;3.30;;
5357;SDS011;2702;51.014;7.170;2022-07-06T02:20:16;3.50;;;2.80;;
5357;SDS011;2702;51.014;7.170;2022-07-06T02:22:42;4.67;;;3.13;;
5357;SDS011;2702;51.014;7.170;2022-07-06T02:25:08;5.80;;;3.10;;
5357;SDS011;2702;51.014;7.170;2022-07-06T02:27:34;3.57;;;3.03;;
5357;SDS011;2702;51.014;7.170;2022-07-06T02:30:00;3.20;;;3.00;;
5357;SDS011;2702;51.014;7.170;2022-07-06T02:32:25;3.00;;;2.80;;
5357;SDS011;2702;51.014;7.170;2022-07-06T02:34:51;4.43;;;3.17;;
5357;SDS011;2702;51.014;7.170;2022-07-06T02:37:17;5.07;;;2.83;;
5357;SDS011;2702;51.014;7.170;2022-07-06T02:39:43;5.13;;;3.60;;
5357;SDS011;2702;51.014;7.170;2022-07-06T02:42:09;5.63;;;3.20;;
5357;SDS011;2702;51.014;7.170;2022-07-06T02:44:35;6.37;;;3.70;;
5357;SDS011;2702;51.014;7.170;2022-07-06T02:47:01;4.77;;;3.53;;
5357;SDS011;2702;51.014;7.170;2022-07-06T02:49:27;4.60;;;3.30;;
5357;SDS011;2702;51.014;7.170;2022-07-06T02:51:53;3.87;;;3.47;;
5357;SDS011;2702;51.014;7.170;2022-07-06T02:54:18;4.60;;;3.27;;
5357;SDS011;2702;51.014;7.170;2022-07-06T02:56:44;5.70;;;3.37;;
5357;SDS011;2702;51.014;7.170;2022-07-06T02:59:16;3.17;;;2.97;;
5357;SDS011;2702;51.014;7.170;2022-07-06T03:01:42;5.40;;;2.90;;
5357;SDS011;2702;51.014;7.170;2022-07-06T03:04:08;6.73;;;3.17;;
5357;SDS011;2702;51.014;7.170;2022-07-06T03:06:33;5.90;;;3.20;;
5357;SDS011;2702;51.014;7.170;2022-07-06T03:08:59;5.00;;;3.47;;
5357;SDS011;2702;51.014;7.170;2022-07-06T03:11:26;4.23;;;3.80;;
5357;SDS011;2702;51.014;7.170;2022-07-06T03:13:51;3.77;;;2.90;;
5357;SDS011;2702;51.014;7.170;2022-07-06T03:16:17;3.13;;;2.83;;
5357;SDS011;2702;51.014;7.170;2022-07-06T03:18:43;3.40;;;2.83;;
5357;SDS011;2702;51.014;7.170;2022-07-06T03:21:09;3.43;;;3.13;;
5357;SDS011;2702;51.014;7.170;2022-07-06T03:23:35;5.53;;;3.57;;
5357;SDS011;2702;51.014;7.170;2022-07-06T03:26:01;3.10;;;2.87;;
5357;SDS011;2702;51.014;7.170;2022-07-06T03:28:27;3.87;;;2.60;;
5357;SDS011;2702;51.014;7.170;2022-07-06T03:30:53;3.40;;;3.00;;
5357;SDS011;2702;51.014;7.170;2022-07-06T03:33:19;5.23;;;3.07;;
5357;SDS011;2702;51.014;7.170;2022-07-06T03:35:45;5.50;;;3.20;;
5357;SDS011;2702;51.014;7.170;2022-07-06T03:38:11;4.87;;;3.00;;
5357;SDS011;2702;51.014;7.170;2022-07-06T03:40:37;5.03;;;3.50;;
5357;SDS011;2702;51.014;7.170;2022-07-06T03:43:03;4.67;;;2.93;;
5357;SDS011;2702;51.014;7.170;2022-07-06T03:45:29;4.20;;;3.17;;
5357;SDS011;2702;51.014;7.170;2022-07-06T03:47:56;4.00;;;3.00;;
5357;SDS011;2702;51.014;7.170;2022-07-06T03:50:21;5.73;;;3.43;;
5357;SDS011;2702;51.014;7.170;2022-07-06T03:52:47;5.63;;;3.50;;
5357;SDS011;2702;51.014;7.170;2022-07-06T03:55:13;6.90;;;3.60;;
5357;SDS011;2702;51.014;7.170;2022-07-06T03:57:41;4.47;;;4.07;;
5357;SDS011;2702;51.014;7.170;2022-07-06T04:00:08;4.37;;;3.60;;
5357;SDS011;2702;51.014;7.170;2022-07-06T04:02:35;3.90;;;3.07;;
5357;SDS011;2702;51.014;7.170;2022-07-06T04:05:03;3.43;;;3.13;;
5357;SDS011;2702;51.014;7.170;2022-07-06T04:07:32;3.87;;;3.17;;
5357;SDS011;2702;51.014;7.170;2022-07-06T04:09:58;6.10;;;3.00;;
5357;SDS011;2702;51.014;7.170;2022-07-06T04:12:24;4.23;;;3.40;;
5357;SDS011;2702;51.014;7.170;2022-07-06T04:14:49;5.60;;;4.00;;
5357;SDS011;2702;51.014;7.170;2022-07-06T04:17:15;5.20;;;3.23;;
5357;SDS011;2702;51.014;7.170;2022-07-06T04:20:00;5.03;;;3.43;;
5357;SDS011;2702;51.014;7.170;2022-07-06T04:22:25;4.07;;;3.60;;
5357;SDS011;2702;51.014;7.170;2022-07-06T04:24:51;4.00;;;3.60;;
5357;SDS011;2702;51.014;7.170;2022-07-06T04:27:17;5.13;;;3.90;;
5357;SDS011;2702;51.014;7.170;2022-07-06T04:29:43;4.70;;;3.60;;
5357;SDS011;2702;51.014;7.170;2022-07-06T04:32:09;6.70;;;3.90;;
5357;SDS011;2702;51.014;7.170;2022-07-06T04:34:35;6.40;;;4.47;;
5357;SDS011;2702;51.014;7.170;2022-07-06T04:37:01;4.30;;;3.90;;
5357;SDS011;2702;51.014;7.170;2022-07-06T04:39:27;5.40;;;4.20;;
5357;SDS011;2702;51.014;7.170;2022-07-06T04:41:56;5.43;;;3.83;;
5357;SDS011;2702;51.014;7.170;2022-07-06T04:44:21;4.43;;;3.70;;
5357;SDS011;2702;51.014;7.170;2022-07-06T04:46:47;6.33;;;4.27;;
5357;SDS011;2702;51.014;7.170;2022-07-06T04:49:13;5.17;;;4.47;;
5357;SDS011;2702;51.014;7.170;2022-07-06T04:51:39;6.67;;;4.77;;
5357;SDS011;2702;51.014;7.170;2022-07-06T04:54:05;6.13;;;3.63;;
5357;SDS011;2702;51.014;7.170;2022-07-06T04:56:33;5.57;;;4.60;;
5357;SDS011;2702;51.014;7.170;2022-07-06T04:58:59;4.13;;;3.73;;
5357;SDS011;2702;51.014;7.170;2022-07-06T05:01:25;4.43;;;4.03;;
5357;SDS011;2702;51.014;7.170;2022-07-06T05:03:51;4.43;;;4.03;;
5357;SDS011;2702;51.014;7.170;2022-07-06T05:06:17;4.43;;;4.07;;
5357;SDS011;2702;51.014;7.170;2022-07-06T05:08:45;4.93;;;4.30;;
5357;SDS011;2702;51.014;7.170;2022-07-06T05:11:11;5.73;;;4.90;;
5357;SDS011;2702;51.014;7.170;2022-07-06T05:13:37;5.93;;;4.50;;
5357;SDS011;2702;51.014;7.170;2022-07-06T05:16:03;4.97;;;4.23;;
5357;SDS011;2702;51.014;7.170;2022-07-06T05:18:29;6.17;;;4.67;;
5357;SDS011;2702;51.014;7.170;2022-07-06T05:20:55;6.10;;;4.37;;
5357;SDS011;2702;51.014;7.170;2022-07-06T05:23:21;7.30;;;4.73;;
5357;SDS011;2702;51.014;7.170;2022-07-06T05:25:47;5.70;;;4.37;;
5357;SDS011;2702;51.014;7.170;2022-07-06T05:28:13;4.30;;;3.90;;
5357;SDS011;2702;51.014;7.170;2022-07-06T05:30:38;5.63;;;4.10;;
5357;SDS011;2702;51.014;7.170;2022-07-06T05:33:04;4.90;;;3.70;;
5357;SDS011;2702;51.014;7.170;2022-07-06T05:35:30;4.77;;;4.23;;
5357;SDS011;2702;51.014;7.170;2022-07-06T05:37:56;4.90;;;4.40;;
5357;SDS011;2702;51.014;7.170;2022-07-06T05:40:22;9.90;;;4.33;;
5357;SDS011;2702;51.014;7.170;2022-07-06T05:42:48;6.90;;;4.53;;
5357;SDS011;2702;51.014;7.170;2022-07-06T05:45:14;4.60;;;3.47;;
5357;SDS011;2702;51.014;7.170;2022-07-06T05:47:40;4.60;;;4.17;;
5357;SDS011;2702;51.014;7.170;2022-07-06T05:50:24;8.20;;;4.50;;
5357;SDS011;2702;51.014;7.170;2022-07-06T05:53:03;5.40;;;3.93;;
5357;SDS011;2702;51.014;7.170;2022-07-06T05:55:30;4.80;;;4.30;;
5357;SDS011;2702;51.014;7.170;2022-07-06T05:57:57;4.20;;;3.80;;
5357;SDS011;2702;51.014;7.170;2022-07-06T06:00:23;6.30;;;4.60;;
5357;SDS011;2702;51.014;7.170;2022-07-06T06:02:51;5.90;;;4.20;;
5357;SDS011;2702;51.014;7.170;2022-07-06T06:05:18;4.40;;;4.00;;
5357;SDS011;2702;51.014;7.170;2022-07-06T06:07:44;4.30;;;3.70;;
5357;SDS011;2702;51.014;7.170;2022-07-06T06:10:16;5.60;;;4.60;;
5357;SDS011;2702;51.014;7.170;2022-07-06T06:12:43;6.07;;;4.63;;
5357;SDS011;2702;51.014;7.170;2022-07-06T06:15:10;4.57;;;3.57;;
5357;SDS011;2702;51.014;7.170;2022-07-06T06:17:37;5.27;;;4.23;;
5357;SDS011;2702;51.014;7.170;2022-07-06T06:20:07;4.33;;;3.40;;
5357;SDS011;2702;51.014;7.170;2022-07-06T06:22:47;4.77;;;4.30;;
5357;SDS011;2702;51.014;7.170;2022-07-06T06:25:15;4.10;;;3.20;;
5357;SDS011;2702;51.014;7.170;2022-07-06T06:27:42;4.60;;;3.87;;
5357;SDS011;2702;51.014;7.170;2022-07-06T06:30:08;4.80;;;3.67;;
5357;SDS011;2702;51.014;7.170;2022-07-06T06:32:34;4.73;;;3.43;;
5357;SDS011;2702;51.014;7.170;2022-07-06T06:35:01;4.80;;;3.80;;
5357;SDS011;2702;51.014;7.170;2022-07-06T06:37:27;3.40;;;3.10;;
5357;SDS011;2702;51.014;7.170;2022-07-06T06:39:52;3.30;;;3.00;;
5357;SDS011;2702;51.014;7.170;2022-07-06T06:42:18;6.53;;;3.37;;
5357;SDS011;2702;51.014;7.170;2022-07-06T06:44:44;4.53;;;3.17;;
5357;SDS011;2702;51.014;7.170;2022-07-06T06:47:10;4.27;;;3.10;;
5357;SDS011;2702;51.014;7.170;2022-07-06T06:49:36;3.10;;;2.77;;
5357;SDS011;2702;51.014;7.170;2022-07-06T06:52:02;4.77;;;2.70;;
5357;SDS011;2702;51.014;7.170;2022-07-06T06:54:28;3.43;;;2.87;;
5357;SDS011;2702;51.014;7.170;2022-07-06T06:56:54;4.47;;;2.47;;
5357;SDS011;2702;51.014;7.170;2022-07-06T06:59:19;5.20;;;2.90;;
5357;SDS011;2702;51.014;7.170;2022-07-06T07:01:45;4.70;;;2.70;;
5357;SDS011;2702;51.014;7.170;2022-07-06T07:04:11;3.70;;;2.93;;
5357;SDS011;2702;51.014;7.170;2022-07-06T07:06:40;8.20;;;3.40;;
5357;SDS011;2702;51.014;7.170;2022-07-06T07:09:06;3.00;;;2.70;;
5357;SDS011;2702;51.014;7.170;2022-07-06T07:11:32;5.20;;;2.57;;
5357;SDS011;2702;51.014;7.170;2022-07-06T07:13:58;7.77;;;3.07;;
5357;SDS011;2702;51.014;7.170;2022-07-06T07:16:26;3.30;;;2.90;;
5357;SDS011;2702;51.014;7.170;2022-07-06T07:18:52;5.60;;;3.17;;
5357;SDS011;2702;51.014;7.170;2022-07-06T07:21:18;6.07;;;2.80;;
5357;SDS011;2702;51.014;7.170;2022-07-06T07:23:43;6.70;;;3.10;;
5357;SDS011;2702;51.014;7.170;2022-07-06T07:26:09;4.80;;;2.87;;
5357;SDS011;2702;51.014;7.170;2022-07-06T07:28:35;3.70;;;2.50;;
5357;SDS011;2702;51.014;7.170;2022-07-06T07:31:02;4.80;;;2.83;;
5357;SDS011;2702;51.014;7.170;2022-07-06T07:33:29;4.00;;;2.67;;
5357;SDS011;2702;51.014;7.170;2022-07-06T07:35:55;4.53;;;2.63;;
5357;SDS011;2702;51.014;7.170;2022-07-06T07:38:21;3.67;;;2.90;;
5357;SDS011;2702;51.014;7.170;2022-07-06T07:40:46;4.80;;;2.27;;
5357;SDS011;2702;51.014;7.170;2022-07-06T07:43:12;3.37;;;2.60;;
5357;SDS011;2702;51.014;7.170;2022-07-06T07:45:38;3.50;;;2.67;;
5357;SDS011;2702;51.014;7.170;2022-07-06T07:48:05;3.00;;;2.00;;
5357;SDS011;2702;51.014;7.170;2022-07-06T07:50:31;3.10;;;2.40;;
5357;SDS011;2702;51.014;7.170;2022-07-06T07:52:57;5.13;;;1.60;;
5357;SDS011;2702;51.014;7.170;2022-07-06T07:55:23;6.43;;;2.13;;
5357;SDS011;2702;51.014;7.170;2022-07-06T07:57:49;2.20;;;1.80;;
5357;SDS011;2702;51.014;7.170;2022-07-06T08:00:15;2.80;;;1.73;;
5357;SDS011;2702;51.014;7.170;2022-07-06T08:02:41;2.70;;;1.83;;
5357;SDS011;2702;51.014;7.170;2022-07-06T08:05:07;5.43;;;1.73;;
5357;SDS011;2702;51.014;7.170;2022-07-06T08:07:33;5.63;;;2.10;;
5357;SDS011;2702;51.014;7.170;2022-07-06T08:09:59;1.67;;;1.37;;
5357;SDS011;2702;51.014;7.170;2022-07-06T08:12:25;3.87;;;1.87;;
5357;SDS011;2702;51.014;7.170;2022-07-06T08:14:51;2.53;;;1.40;;
5357;SDS011;2702;51.014;7.170;2022-07-06T08:17:17;2.13;;;1.63;;
5357;SDS011;2702;51.014;7.170;2022-07-06T08:19:43;1.20;;;1.10;;
5357;SDS011;2702;51.014;7.170;2022-07-06T08:22:09;4.33;;;1.40;;
5357;SDS011;2702;51.014;7.170;2022-07-06T08:24:35;1.60;;;1.10;;
5357;SDS011;2702;51.014;7.170;2022-07-06T08:27:01;2.90;;;1.63;;
5357;SDS011;2702;51.014;7.170;2022-07-06T08:29:31;1.90;;;0.90;;
5357;SDS011;2702;51.014;7.170;2022-07-06T08:31:57;4.53;;;1.43;;
5357;SDS011;2702;51.014;7.170;2022-07-06T08:34:23;3.07;;;0.83;;
5357;SDS011;2702;51.014;7.170;2022-07-06T08:36:49;2.40;;;1.47;;
5357;SDS011;2702;51.014;7.170;2022-07-06T08:39:15;3.10;;;1.20;;
5357;SDS011;2702;51.014;7.170;2022-07-06T08:41:42;5.60;;;1.30;;
5357;SDS011;2702;51.014;7.170;2022-07-06T08:44:13;5.00;;;1.30;;
5357;SDS011;2702;51.014;7.170;2022-07-06T08:46:40;2.90;;;1.10;;
5357;SDS011;2702;51.014;7.170;2022-07-06T08:49:07;2.30;;;1.13;;
5357;SDS011;2702;51.014;7.170;2022-07-06T08:51:36;1.77;;;1.67;;
5357;SDS011;2702;51.014;7.170;2022-07-06T08:54:03;2.23;;;1.30;;
5357;SDS011;2702;51.014;7.170;2022-07-06T08:56:32;2.53;;;1.70;;
5357;SDS011;2702;51.014;7.170;2022-07-06T08:58:58;3.90;;;1.90;;
5357;SDS011;2702;51.014;7.170;2022-07-06T09:01:25;3.30;;;1.60;;
5357;SDS011;2702;51.014;7.170;2022-07-06T09:03:51;2.37;;;1.67;;
5357;SDS011;2702;51.014;7.170;2022-07-06T09:06:24;4.87;;;1.70;;
5357;SDS011;2702;51.014;7.170;2022-07-06T09:08:52;3.63;;;1.63;;
5357;SDS011;2702;51.014;7.170;2022-07-06T09:11:24;2.50;;;1.20;;
5357;SDS011;2702;51.014;7.170;2022-07-06T09:13:53;3.67;;;1.33;;
5357;SDS011;2702;51.014;7.170;2022-07-06T09:16:24;1.40;;;1.20;;
5357;SDS011;2702;51.014;7.170;2022-07-06T09:18:52;2.10;;;1.37;;
5357;SDS011;2702;51.014;7.170;2022-07-06T09:21:29;2.30;;;1.13;;
5357;SDS011;2702;51.014;7.170;2022-07-06T09:23:57;1.63;;;1.30;;
5357;SDS011;2702;51.014;7.170;2022-07-06T09:26:25;1.20;;;1.10;;
5357;SDS011;2702;51.014;7.170;2022-07-06T09:28:52;2.10;;;1.17;;
5357;SDS011;2702;51.014;7.170;2022-07-06T09:31:21;1.40;;;1.10;;
5357;SDS011;2702;51.014;7.170;2022-07-06T09:39:18;2.43;;;1.67;;
5357;SDS011;2702;51.014;7.170;2022-07-06T09:41:53;3.40;;;0.70;;
5357;SDS011;2702;51.014;7.170;2022-07-06T09:44:34;1.50;;;0.90;;
5357;SDS011;2702;51.014;7.170;2022-07-06T09:47:13;3.60;;;0.93;;
5357;SDS011;2702;51.014;7.170;2022-07-06T09:49:40;1.73;;;0.87;;
5357;SDS011;2702;51.014;7.170;2022-07-06T09:52:06;1.83;;;0.90;;
5357;SDS011;2702;51.014;7.170;2022-07-06T09:54:34;0.80;;;0.63;;
5357;SDS011;2702;51.014;7.170;2022-07-06T09:57:02;0.93;;;0.70;;
5357;SDS011;2702;51.014;7.170;2022-07-06T09:59:29;1.20;;;0.87;;
5357;SDS011;2702;51.014;7.170;2022-07-06T10:01:57;1.73;;;0.80;;
5357;SDS011;2702;51.014;7.170;2022-07-06T10:04:29;1.10;;;1.00;;
5357;SDS011;2702;51.014;7.170;2022-07-06T10:06:56;1.90;;;0.90;;
5357;SDS011;2702;51.014;7.170;2022-07-06T10:09:24;1.83;;;0.77;;
5357;SDS011;2702;51.014;7.170;2022-07-06T10:11:53;1.80;;;1.00;;
5357;SDS011;2702;51.014;7.170;2022-07-06T10:14:24;1.50;;;0.83;;
5357;SDS011;2702;51.014;7.170;2022-07-06T10:16:57;1.40;;;0.80;;
5357;SDS011;2702;51.014;7.170;2022-07-06T10:19:26;1.90;;;0.97;;
5357;SDS011;2702;51.014;7.170;2022-07-06T10:21:53;0.90;;;0.80;;
5357;SDS011;2702;51.014;7.170;2022-07-06T10:24:21;2.20;;;0.93;;
5357;SDS011;2702;51.014;7.170;2022-07-06T10:26:48;3.57;;;0.87;;
5357;SDS011;2702;51.014;7.170;2022-07-06T10:29:17;1.10;;;1.00;;
5357;SDS011;2702;51.014;7.170;2022-07-06T10:31:45;2.30;;;1.27;;
5357;SDS011;2702;51.014;7.170;2022-07-06T10:34:18;1.27;;;0.73;;
5357;SDS011;2702;51.014;7.170;2022-07-06T10:36:48;1.10;;;0.77;;
5357;SDS011;2702;51.014;7.170;2022-07-06T10:39:16;2.03;;;0.80;;
5357;SDS011;2702;51.014;7.170;2022-07-06T10:50:40;1.63;;;1.00;;
5357;SDS011;2702;51.014;7.170;2022-07-06T10:53:12;3.40;;;1.30;;
5357;SDS011;2702;51.014;7.170;2022-07-06T10:55:40;1.50;;;1.20;;
5357;SDS011;2702;51.014;7.170;2022-07-06T10:58:09;1.83;;;1.20;;
5357;SDS011;2702;51.014;7.170;2022-07-06T11:00:56;1.97;;;1.43;;
5357;SDS011;2702;51.014;7.170;2022-07-06T11:06:21;1.33;;;1.10;;
5357;SDS011;2702;51.014;7.170;2022-07-06T11:08:59;2.47;;;1.43;;
5357;SDS011;2702;51.014;7.170;2022-07-06T11:16:29;2.50;;;1.10;;
5357;SDS011;2702;51.014;7.170;2022-07-06T11:21:51;2.57;;;1.20;;
5357;SDS011;2702;51.014;7.170;2022-07-06T11:26:56;1.77;;;1.20;;
5357;SDS011;2702;51.014;7.170;2022-07-06T11:29:24;2.60;;;1.40;;
5357;SDS011;2702;51.014;7.170;2022-07-06T11:31:55;1.40;;;1.23;;
5357;SDS011;2702;51.014;7.170;2022-07-06T11:34:24;3.27;;;1.50;;
5357;SDS011;2702;51.014;7.170;2022-07-06T11:36:58;1.43;;;1.27;;
5357;SDS011;2702;51.014;7.170;2022-07-06T11:39:26;1.90;;;1.80;;
5357;SDS011;2702;51.014;7.170;2022-07-06T11:41:56;2.20;;;1.60;;
5357;SDS011;2702;51.014;7.170;2022-07-06T11:44:23;2.33;;;1.40;;
5357;SDS011;2702;51.014;7.170;2022-07-06T11:46:50;1.50;;;1.40;;
5357;SDS011;2702;51.014;7.170;2022-07-06T11:49:16;2.00;;;1.67;;
5357;SDS011;2702;51.014;7.170;2022-07-06T11:51:44;1.87;;;1.70;;
5357;SDS011;2702;51.014;7.170;2022-07-06T11:54:15;1.83;;;1.70;;
5357;SDS011;2702;51.014;7.170;2022-07-06T11:56:45;1.67;;;1.50;;
5357;SDS011;2702;51.014;7.170;2022-07-06T11:59:14;3.03;;;1.90;;
5357;SDS011;2702;51.014;7.170;2022-07-06T12:01:45;1.70;;;1.60;;
5357;SDS011;2702;51.014;7.170;2022-07-06T12:04:11;1.67;;;1.57;;
5357;SDS011;2702;51.014;7.170;2022-07-06T12:06:37;1.97;;;1.77;;
5357;SDS011;2702;51.014;7.170;2022-07-06T12:09:03;3.63;;;1.93;;
5357;SDS011;2702;51.014;7.170;2022-07-06T12:11:32;2.03;;;1.93;;
5357;SDS011;2702;51.014;7.170;2022-07-06T12:14:01;4.00;;;2.37;;
5357;SDS011;2702;51.014;7.170;2022-07-06T12:16:37;2.27;;;2.07;;
5357;SDS011;2702;51.014;7.170;2022-07-06T12:19:04;2.50;;;2.40;;
5357;SDS011;2702;51.014;7.170;2022-07-06T12:21:32;2.17;;;1.90;;
5357;SDS011;2702;51.014;7.170;2022-07-06T12:23:59;5.13;;;2.67;;
5357;SDS011;2702;51.014;7.170;2022-07-06T12:26:27;2.47;;;2.27;;
5357;SDS011;2702;51.014;7.170;2022-07-06T12:29:04;3.60;;;2.00;;
5357;SDS011;2702;51.014;7.170;2022-07-06T12:34:04;1.80;;;1.70;;
5357;SDS011;2702;51.014;7.170;2022-07-06T12:39:17;2.47;;;1.90;;
5357;SDS011;2702;51.014;7.170;2022-07-06T12:41:48;4.03;;;1.70;;
5357;SDS011;2702;51.014;7.170;2022-07-06T12:44:16;1.60;;;1.40;;
5357;SDS011;2702;51.014;7.170;2022-07-06T12:46:43;1.63;;;1.40;;
5357;SDS011;2702;51.014;7.170;2022-07-06T12:49:22;5.10;;;1.60;;
5357;SDS011;2702;51.014;7.170;2022-07-06T12:54:16;1.50;;;1.30;;
5357;SDS011;2702;51.014;7.170;2022-07-06T12:56:56;2.30;;;1.37;;
5357;SDS011;2702;51.014;7.170;2022-07-06T12:59:25;2.23;;;1.03;;
5357;SDS011;2702;51.014;7.170;2022-07-06T13:01:51;2.40;;;1.20;;
5357;SDS011;2702;51.014;7.170;2022-07-06T13:04:22;2.33;;;1.33;;
5357;SDS011;2702;51.014;7.170;2022-07-06T13:06:52;1.17;;;1.07;;
5357;SDS011;2702;51.014;7.170;2022-07-06T13:09:19;2.10;;;1.20;;
5357;SDS011;2702;51.014;7.170;2022-07-06T13:11:46;2.63;;;1.20;;
5357;SDS011;2702;51.014;7.170;2022-07-06T13:14:14;2.20;;;1.40;;
5357;SDS011;2702;51.014;7.170;2022-07-06T13:16:42;2.37;;;0.97;;
5357;SDS011;2702;51.014;7.170;2022-07-06T13:19:08;1.63;;;0.90;;
5357;SDS011;2702;51.014;7.170;2022-07-06T13:21:34;2.03;;;1.23;;
5357;SDS011;2702;51.014;7.170;2022-07-06T13:24:01;1.20;;;1.10;;
5357;SDS011;2702;51.014;7.170;2022-07-06T13:26:30;1.53;;;1.20;;
5357;SDS011;2702;51.014;7.170;2022-07-06T13:29:00;1.73;;;1.20;;
5357;SDS011;2702;51.014;7.170;2022-07-06T13:31:28;1.63;;;1.17;;
5357;SDS011;2702;51.014;7.170;2022-07-06T13:33:55;2.37;;;1.17;;
5357;SDS011;2702;51.014;7.170;2022-07-06T13:36:22;1.50;;;1.40;;
5357;SDS011;2702;51.014;7.170;2022-07-06T13:38:48;3.37;;;1.50;;
5357;SDS011;2702;51.014;7.170;2022-07-06T13:41:15;5.07;;;1.10;;
5357;SDS011;2702;51.014;7.170;2022-07-06T13:43:41;2.10;;;1.33;;
5357;SDS011;2702;51.014;7.170;2022-07-06T13:46:07;1.33;;;1.10;;
5357;SDS011;2702;51.014;7.170;2022-07-06T13:48:33;3.30;;;1.30;;
5357;SDS011;2702;51.014;7.170;2022-07-06T13:51:00;4.57;;;1.60;;
5357;SDS011;2702;51.014;7.170;2022-07-06T13:53:26;2.83;;;1.70;;
5357;SDS011;2702;51.014;7.170;2022-07-06T13:55:52;1.67;;;1.20;;
5357;SDS011;2702;51.014;7.170;2022-07-06T13:58:18;4.20;;;1.33;;
5357;SDS011;2702;51.014;7.170;2022-07-06T14:00:45;5.07;;;1.20;;
5357;SDS011;2702;51.014;7.170;2022-07-06T14:03:11;3.00;;;1.50;;
5357;SDS011;2702;51.014;7.170;2022-07-06T14:05:37;2.67;;;1.20;;
5357;SDS011;2702;51.014;7.170;2022-07-06T14:08:03;1.13;;;0.97;;
5357;SDS011;2702;51.014;7.170;2022-07-06T14:10:29;1.33;;;1.20;;
5357;SDS011;2702;51.014;7.170;2022-07-06T14:12:55;1.83;;;1.13;;
5357;SDS011;2702;51.014;7.170;2022-07-06T14:15:21;2.90;;;1.30;;
5357;SDS011;2702;51.014;7.170;2022-07-06T14:17:47;1.67;;;1.37;;
5357;SDS011;2702;51.014;7.170;2022-07-06T14:20:13;3.23;;;1.57;;
5357;SDS011;2702;51.014;7.170;2022-07-06T14:22:40;1.40;;;1.30;;
5357;SDS011;2702;51.014;7.170;2022-07-06T14:25:06;3.63;;;1.73;;
5357;SDS011;2702;51.014;7.170;2022-07-06T14:27:33;1.30;;;1.10;;
5357;SDS011;2702;51.014;7.170;2022-07-06T14:30:02;1.77;;;1.50;;
5357;SDS011;2702;51.014;7.170;2022-07-06T14:32:29;1.23;;;1.23;;
5357;SDS011;2702;51.014;7.170;2022-07-06T14:34:55;2.47;;;1.23;;
5357;SDS011;2702;51.014;7.170;2022-07-06T14:37:21;1.80;;;0.93;;
5357;SDS011;2702;51.014;7.170;2022-07-06T14:39:47;2.30;;;1.10;;
5357;SDS011;2702;51.014;7.170;2022-07-06T14:42:13;3.40;;;1.60;;
5357;SDS011;2702;51.014;7.170;2022-07-06T14:44:39;1.10;;;1.00;;
5357;SDS011;2702;51.014;7.170;2022-07-06T14:47:05;3.73;;;1.20;;
5357;SDS011;2702;51.014;7.170;2022-07-06T14:49:31;3.53;;;1.30;;
5357;SDS011;2702;51.014;7.170;2022-07-06T14:51:57;2.27;;;1.10;;
5357;SDS011;2702;51.014;7.170;2022-07-06T14:54:24;1.43;;;1.33;;
5357;SDS011;2702;51.014;7.170;2022-07-06T14:56:50;1.20;;;1.00;;
5357;SDS011;2702;51.014;7.170;2022-07-06T14:59:16;1.53;;;1.07;;
5357;SDS011;2702;51.014;7.170;2022-07-06T15:01:43;1.70;;;1.40;;
5357;SDS011;2702;51.014;7.170;2022-07-06T15:04:09;2.40;;;1.20;;
5357;SDS011;2702;51.014;7.170;2022-07-06T15:06:38;1.10;;;1.00;;
5357;SDS011;2702;51.014;7.170;2022-07-06T15:09:04;1.30;;;1.20;;
5357;SDS011;2702;51.014;7.170;2022-07-06T15:11:31;1.77;;;1.30;;
5357;SDS011;2702;51.014;7.170;2022-07-06T15:13:57;1.17;;;1.10;;
5357;SDS011;2702;51.014;7.170;2022-07-06T15:16:23;1.77;;;1.30;;
5357;SDS011;2702;51.014;7.170;2022-07-06T15:18:49;0.90;;;0.90;;
5357;SDS011;2702;51.014;7.170;2022-07-06T15:21:16;1.93;;;1.40;;
5357;SDS011;2702;51.014;7.170;2022-07-06T15:23:41;1.53;;;1.00;;
5357;SDS011;2702;51.014;7.170;2022-07-06T15:26:08;2.73;;;1.00;;
5357;SDS011;2702;51.014;7.170;2022-07-06T15:28:35;0.83;;;0.83;;
5357;SDS011;2702;51.014;7.170;2022-07-06T15:31:01;1.40;;;1.00;;
5357;SDS011;2702;51.014;7.170;2022-07-06T15:33:27;1.13;;;0.90;;
5357;SDS011;2702;51.014;7.170;2022-07-06T15:35:53;1.23;;;1.00;;
5357;SDS011;2702;51.014;7.170;2022-07-06T15:38:19;1.00;;;0.90;;
5357;SDS011;2702;51.014;7.170;2022-07-06T15:40:45;2.87;;;1.20;;
5357;SDS011;2702;51.014;7.170;2022-07-06T15:43:15;3.60;;;1.00;;
5357;SDS011;2702;51.014;7.170;2022-07-06T15:45:41;3.10;;;1.17;;
5357;SDS011;2702;51.014;7.170;2022-07-06T15:48:07;0.83;;;0.83;;
5357;SDS011;2702;51.014;7.170;2022-07-06T15:50:33;2.90;;;1.00;;
5357;SDS011;2702;51.014;7.170;2022-07-06T15:53:00;1.30;;;0.83;;